sensor_id;sensor_type;location;lat;lon;timestamp;pressure;altitude;pressure_sealevel;temperature;humidity
59545;BME280;45368;55.002;-1.592;2022-12-07T00:01:43;101808.58;;;0.59;67.89
59545;BME280;45368;55.002;-1.592;2022-12-07T00:04:13;101805.49;;;0.36;68.36
59545;BME280;45368;55.002;-1.592;2022-12-07T00:06:43;101809.09;;;-0.05;69.60
59545;BME280;45368;55.002;-1.592;2022-12-07T00:09:12;101803.54;;;-0.07;70.34
59545;BME280;45368;55.002;-1.592;2022-12-07T00:11:39;101801.98;;;-0.33;71.74
59545;BME280;45368;55.002;-1.592;2022-12-07T00:14:10;101800.11;;;0.07;70.37
59545;BME280;45368;55.002;-1.592;2022-12-07T00:16:37;101795.38;;;0.17;69.72
59545;BME280;45368;55.002;-1.592;2022-12-07T00:19:05;101794.14;;;-0.33;71.31
59545;BME280;45368;55.002;-1.592;2022-12-07T00:21:34;101790.50;;;-0.21;71.93
59545;BME280;45368;55.002;-1.592;2022-12-07T00:24:03;101787.82;;;0.10;70.46
59545;BME280;45368;55.002;-1.592;2022-12-07T00:26:33;101788.02;;;0.04;69.98
59545;BME280;45368;55.002;-1.592;2022-12-07T00:29:03;101787.73;;;0.43;68.43
59545;BME280;45368;55.002;-1.592;2022-12-07T00:31:36;101781.84;;;1.20;66.35
59545;BME280;45368;55.002;-1.592;2022-12-07T00:34:21;101781.09;;;1.13;65.37
59545;BME280;45368;55.002;-1.592;2022-12-07T00:36:49;101786.59;;;0.09;67.72
59545;BME280;45368;55.002;-1.592;2022-12-07T00:39:16;101782.34;;;0.88;65.32
59545;BME280;45368;55.002;-1.592;2022-12-07T00:41:49;101774.42;;;1.79;63.38
59545;BME280;45368;55.002;-1.592;2022-12-07T00:48:42;101780.15;;;2.18;62.96
59545;BME280;45368;55.002;-1.592;2022-12-07T00:51:11;101771.18;;;1.82;62.20
59545;BME280;45368;55.002;-1.592;2022-12-07T00:53:39;101768.41;;;1.70;63.31
59545;BME280;45368;55.002;-1.592;2022-12-07T00:56:08;101765.84;;;1.69;63.19
59545;BME280;45368;55.002;-1.592;2022-12-07T00:58:36;101766.43;;;1.00;65.81
59545;BME280;45368;55.002;-1.592;2022-12-07T01:01:05;101765.36;;;0.84;66.19
59545;BME280;45368;55.002;-1.592;2022-12-07T01:03:32;101768.54;;;-0.07;67.41
59545;BME280;45368;55.002;-1.592;2022-12-07T01:06:00;101766.17;;;-0.04;68.75
59545;BME280;45368;55.002;-1.592;2022-12-07T01:08:29;101762.61;;;-0.53;70.15
59545;BME280;45368;55.002;-1.592;2022-12-07T01:10:58;101754.34;;;0.36;67.63
59545;BME280;45368;55.002;-1.592;2022-12-07T01:13:26;101752.45;;;0.09;68.75
59545;BME280;45368;55.002;-1.592;2022-12-07T01:15:57;101753.91;;;-0.08;69.16
59545;BME280;45368;55.002;-1.592;2022-12-07T01:18:24;101745.38;;;0.39;67.15
59545;BME280;45368;55.002;-1.592;2022-12-07T01:20:58;101741.37;;;0.46;67.66
59545;BME280;45368;55.002;-1.592;2022-12-07T01:23:26;101739.16;;;0.05;67.46
59545;BME280;45368;55.002;-1.592;2022-12-07T01:25:55;101744.24;;;-0.06;68.51
59545;BME280;45368;55.002;-1.592;2022-12-07T01:28:23;101736.51;;;0.20;68.01
59545;BME280;45368;55.002;-1.592;2022-12-07T01:30:59;101741.43;;;0.01;68.47
59545;BME280;45368;55.002;-1.592;2022-12-07T01:33:28;101738.60;;;-0.15;68.42
59545;BME280;45368;55.002;-1.592;2022-12-07T01:36:00;101737.91;;;-0.32;70.09
59545;BME280;45368;55.002;-1.592;2022-12-07T01:38:28;101738.68;;;-0.39;70.21
59545;BME280;45368;55.002;-1.592;2022-12-07T01:40:56;101729.78;;;0.32;67.90
59545;BME280;45368;55.002;-1.592;2022-12-07T01:43:25;101733.26;;;-0.19;69.09
59545;BME280;45368;55.002;-1.592;2022-12-07T01:45:53;101735.63;;;-0.06;68.63
59545;BME280;45368;55.002;-1.592;2022-12-07T01:48:24;101736.41;;;-0.39;69.94
59545;BME280;45368;55.002;-1.592;2022-12-07T01:50:55;101734.36;;;0.04;69.33
59545;BME280;45368;55.002;-1.592;2022-12-07T01:53:28;101732.02;;;-0.38;70.52
59545;BME280;45368;55.002;-1.592;2022-12-07T01:55:56;101730.04;;;-0.30;69.45
59545;BME280;45368;55.002;-1.592;2022-12-07T01:58:25;101727.13;;;-0.17;70.18
59545;BME280;45368;55.002;-1.592;2022-12-07T02:00:53;101725.18;;;-0.40;69.85
59545;BME280;45368;55.002;-1.592;2022-12-07T02:03:24;101718.73;;;-0.15;69.02
59545;BME280;45368;55.002;-1.592;2022-12-07T02:05:53;101719.67;;;-0.28;69.09
59545;BME280;45368;55.002;-1.592;2022-12-07T02:08:21;101715.31;;;-0.48;69.45
59545;BME280;45368;55.002;-1.592;2022-12-07T02:10:49;101718.93;;;-0.08;68.50
59545;BME280;45368;55.002;-1.592;2022-12-07T02:13:18;101715.90;;;-0.78;70.66
59545;BME280;45368;55.002;-1.592;2022-12-07T02:16:02;101712.35;;;-0.82;71.36
59545;BME280;45368;55.002;-1.592;2022-12-07T02:18:43;101706.42;;;-0.53;70.78
59545;BME280;45368;55.002;-1.592;2022-12-07T02:21:16;101702.80;;;-0.77;70.95
59545;BME280;45368;55.002;-1.592;2022-12-07T02:24:35;101700.90;;;-0.65;70.11
59545;BME280;45368;55.002;-1.592;2022-12-07T02:27:19;101703.18;;;-0.65;70.44
59545;BME280;45368;55.002;-1.592;2022-12-07T02:29:57;101705.14;;;-1.25;71.97
59545;BME280;45368;55.002;-1.592;2022-12-07T02:32:28;101696.83;;;-1.01;71.89
59545;BME280;45368;55.002;-1.592;2022-12-07T02:35:04;101701.87;;;-1.35;73.32
59545;BME280;45368;55.002;-1.592;2022-12-07T02:37:37;101702.22;;;-1.12;71.95
59545;BME280;45368;55.002;-1.592;2022-12-07T02:40:11;101702.38;;;-1.09;71.64
59545;BME280;45368;55.002;-1.592;2022-12-07T02:42:46;101700.14;;;-1.25;72.04
59545;BME280;45368;55.002;-1.592;2022-12-07T02:45:18;101702.61;;;-1.23;72.88
59545;BME280;45368;55.002;-1.592;2022-12-07T02:47:51;101701.94;;;-0.94;71.12
59545;BME280;45368;55.002;-1.592;2022-12-07T02:50:21;101701.69;;;-1.03;70.77
59545;BME280;45368;55.002;-1.592;2022-12-07T02:52:49;101699.28;;;-0.17;69.48
59545;BME280;45368;55.002;-1.592;2022-12-07T02:55:17;101695.42;;;-0.73;70.61
59545;BME280;45368;55.002;-1.592;2022-12-07T02:58:00;101696.39;;;-0.49;70.18
59545;BME280;45368;55.002;-1.592;2022-12-07T03:00:31;101682.18;;;-1.01;70.96
59545;BME280;45368;55.002;-1.592;2022-12-07T03:03:06;101685.09;;;-0.72;70.44
59545;BME280;45368;55.002;-1.592;2022-12-07T03:05:52;101693.87;;;-1.25;71.59
59545;BME280;45368;55.002;-1.592;2022-12-07T03:08:28;101690.54;;;-1.52;73.31
59545;BME280;45368;55.002;-1.592;2022-12-07T03:11:02;101684.69;;;-0.60;70.24
59545;BME280;45368;55.002;-1.592;2022-12-07T03:13:34;101686.31;;;-0.58;70.30
59545;BME280;45368;55.002;-1.592;2022-12-07T03:16:07;101689.53;;;-1.00;70.94
59545;BME280;45368;55.002;-1.592;2022-12-07T03:18:39;101692.00;;;-0.54;70.31
59545;BME280;45368;55.002;-1.592;2022-12-07T03:21:13;101690.17;;;-0.99;71.18
59545;BME280;45368;55.002;-1.592;2022-12-07T03:23:43;101688.80;;;-0.85;70.23
59545;BME280;45368;55.002;-1.592;2022-12-07T03:26:13;101694.30;;;-1.17;71.37
59545;BME280;45368;55.002;-1.592;2022-12-07T03:28:46;101696.10;;;-1.22;71.91
59545;BME280;45368;55.002;-1.592;2022-12-07T03:31:18;101686.06;;;-0.88;70.91
59545;BME280;45368;55.002;-1.592;2022-12-07T03:33:51;101682.41;;;-1.11;71.31
59545;BME280;45368;55.002;-1.592;2022-12-07T03:36:26;101673.98;;;-0.23;68.95
59545;BME280;45368;55.002;-1.592;2022-12-07T03:39:00;101676.14;;;-0.28;69.13
59545;BME280;45368;55.002;-1.592;2022-12-07T03:41:34;101673.50;;;-0.06;68.79
59545;BME280;45368;55.002;-1.592;2022-12-07T03:44:04;101669.52;;;-1.12;69.94
59545;BME280;45368;55.002;-1.592;2022-12-07T03:46:37;101673.61;;;-0.78;70.14
59545;BME280;45368;55.002;-1.592;2022-12-07T03:49:12;101665.80;;;0.04;68.14
59545;BME280;45368;55.002;-1.592;2022-12-07T03:51:46;101666.71;;;-0.14;68.41
59545;BME280;45368;55.002;-1.592;2022-12-07T03:54:21;101657.80;;;0.30;66.83
59545;BME280;45368;55.002;-1.592;2022-12-07T03:56:51;101654.35;;;0.38;66.88
59545;BME280;45368;55.002;-1.592;2022-12-07T03:59:20;101649.25;;;0.08;67.35
59545;BME280;45368;55.002;-1.592;2022-12-07T04:01:53;101655.50;;;0.38;65.97
59545;BME280;45368;55.002;-1.592;2022-12-07T04:04:21;101658.18;;;0.28;64.96
59545;BME280;45368;55.002;-1.592;2022-12-07T04:06:48;101663.20;;;-0.01;67.46
59545;BME280;45368;55.002;-1.592;2022-12-07T04:09:16;101663.79;;;-0.26;68.56
59545;BME280;45368;55.002;-1.592;2022-12-07T04:11:44;101663.15;;;-0.45;67.46
59545;BME280;45368;55.002;-1.592;2022-12-07T04:14:11;101668.66;;;-0.01;67.82
59545;BME280;45368;55.002;-1.592;2022-12-07T04:16:38;101668.63;;;-0.38;68.29
59545;BME280;45368;55.002;-1.592;2022-12-07T04:19:05;101666.10;;;-0.28;68.95
59545;BME280;45368;55.002;-1.592;2022-12-07T04:21:32;101664.55;;;-0.89;69.94
59545;BME280;45368;55.002;-1.592;2022-12-07T04:23:59;101662.67;;;-0.72;70.43
59545;BME280;45368;55.002;-1.592;2022-12-07T04:26:26;101661.73;;;-0.86;70.67
59545;BME280;45368;55.002;-1.592;2022-12-07T04:28:53;101657.20;;;-0.26;67.89
59545;BME280;45368;55.002;-1.592;2022-12-07T04:31:20;101653.73;;;0.07;66.47
59545;BME280;45368;55.002;-1.592;2022-12-07T04:33:48;101652.82;;;-0.31;67.11
59545;BME280;45368;55.002;-1.592;2022-12-07T04:36:15;101652.55;;;0.00;66.96
59545;BME280;45368;55.002;-1.592;2022-12-07T04:38:42;101651.66;;;-0.39;67.10
59545;BME280;45368;55.002;-1.592;2022-12-07T04:41:09;101652.63;;;-0.59;67.98
59545;BME280;45368;55.002;-1.592;2022-12-07T04:43:37;101652.49;;;-0.69;68.13
59545;BME280;45368;55.002;-1.592;2022-12-07T04:46:05;101649.54;;;-0.60;69.34
59545;BME280;45368;55.002;-1.592;2022-12-07T04:48:32;101649.02;;;-0.61;68.98
59545;BME280;45368;55.002;-1.592;2022-12-07T04:51:02;101650.82;;;-0.73;69.51
59545;BME280;45368;55.002;-1.592;2022-12-07T04:53:30;101651.48;;;-1.50;70.39
59545;BME280;45368;55.002;-1.592;2022-12-07T04:55:57;101645.04;;;-1.35;70.95
59545;BME280;45368;55.002;-1.592;2022-12-07T04:59:34;101640.64;;;-1.34;69.86
59545;BME280;45368;55.002;-1.592;2022-12-07T05:02:07;101633.09;;;-0.53;67.61
59545;BME280;45368;55.002;-1.592;2022-12-07T05:04:35;101631.01;;;-0.01;66.31
59545;BME280;45368;55.002;-1.592;2022-12-07T05:14:26;101626.99;;;0.42;67.07
59545;BME280;45368;55.002;-1.592;2022-12-07T05:16:57;101620.01;;;0.39;65.70
59545;BME280;45368;55.002;-1.592;2022-12-07T05:19:24;101621.65;;;0.07;65.14
59545;BME280;45368;55.002;-1.592;2022-12-07T05:35:09;101620.88;;;0.79;64.69
59545;BME280;45368;55.002;-1.592;2022-12-07T05:37:42;101617.85;;;0.33;63.86
59545;BME280;45368;55.002;-1.592;2022-12-07T05:40:11;101613.67;;;0.62;64.09
59545;BME280;45368;55.002;-1.592;2022-12-07T05:42:38;101614.31;;;0.06;65.25
59545;BME280;45368;55.002;-1.592;2022-12-07T05:45:07;101615.64;;;0.89;63.37
59545;BME280;45368;55.002;-1.592;2022-12-07T05:47:36;101608.94;;;1.03;62.80
59545;BME280;45368;55.002;-1.592;2022-12-07T05:50:04;101612.79;;;0.96;62.68
59545;BME280;45368;55.002;-1.592;2022-12-07T05:52:32;101614.99;;;0.33;63.67
59545;BME280;45368;55.002;-1.592;2022-12-07T05:54:59;101610.41;;;0.27;63.95
59545;BME280;45368;55.002;-1.592;2022-12-07T05:57:26;101600.01;;;1.99;60.69
59545;BME280;45368;55.002;-1.592;2022-12-07T05:59:53;101594.80;;;2.06;59.58
59545;BME280;45368;55.002;-1.592;2022-12-07T06:02:20;101595.22;;;1.79;59.94
59545;BME280;45368;55.002;-1.592;2022-12-07T06:04:47;101590.65;;;2.65;58.32
59545;BME280;45368;55.002;-1.592;2022-12-07T06:07:16;101587.13;;;2.65;57.39
59545;BME280;45368;55.002;-1.592;2022-12-07T06:09:44;101589.26;;;2.21;57.41
59545;BME280;45368;55.002;-1.592;2022-12-07T06:12:12;101593.18;;;2.01;58.47
59545;BME280;45368;55.002;-1.592;2022-12-07T06:14:40;101588.71;;;2.19;58.15
59545;BME280;45368;55.002;-1.592;2022-12-07T06:17:08;101589.15;;;2.37;57.91
59545;BME280;45368;55.002;-1.592;2022-12-07T06:19:36;101585.96;;;2.26;58.29
59545;BME280;45368;55.002;-1.592;2022-12-07T06:22:03;101574.36;;;2.16;57.62
59545;BME280;45368;55.002;-1.592;2022-12-07T06:24:31;101570.37;;;2.90;56.55
59545;BME280;45368;55.002;-1.592;2022-12-07T06:26:59;101574.56;;;2.09;58.59
59545;BME280;45368;55.002;-1.592;2022-12-07T06:29:26;101573.23;;;1.36;60.32
59545;BME280;45368;55.002;-1.592;2022-12-07T06:31:53;101577.54;;;1.83;60.30
59545;BME280;45368;55.002;-1.592;2022-12-07T06:34:22;101579.72;;;1.78;60.13
59545;BME280;45368;55.002;-1.592;2022-12-07T06:36:50;101574.77;;;1.87;59.41
59545;BME280;45368;55.002;-1.592;2022-12-07T06:39:19;101572.14;;;2.05;58.63
59545;BME280;45368;55.002;-1.592;2022-12-07T06:41:47;101573.97;;;1.92;60.13
59545;BME280;45368;55.002;-1.592;2022-12-07T06:44:14;101580.27;;;0.86;61.90
59545;BME280;45368;55.002;-1.592;2022-12-07T06:46:42;101574.92;;;0.61;62.47
59545;BME280;45368;55.002;-1.592;2022-12-07T06:49:09;101569.98;;;0.34;63.95
59545;BME280;45368;55.002;-1.592;2022-12-07T06:51:37;101570.06;;;-0.22;66.53
59545;BME280;45368;55.002;-1.592;2022-12-07T06:54:04;101561.61;;;0.50;63.91
59545;BME280;45368;55.002;-1.592;2022-12-07T06:56:32;101562.71;;;0.46;65.28
59545;BME280;45368;55.002;-1.592;2022-12-07T06:58:59;101556.02;;;0.73;62.99
59545;BME280;45368;55.002;-1.592;2022-12-07T07:01:26;101554.00;;;0.60;63.11
59545;BME280;45368;55.002;-1.592;2022-12-07T07:03:53;101559.85;;;0.81;63.15
59545;BME280;45368;55.002;-1.592;2022-12-07T07:06:20;101554.25;;;1.12;61.89
59545;BME280;45368;55.002;-1.592;2022-12-07T07:08:47;101555.85;;;0.16;63.59
59545;BME280;45368;55.002;-1.592;2022-12-07T07:11:14;101555.46;;;-0.10;65.24
59545;BME280;45368;55.002;-1.592;2022-12-07T07:13:42;101552.61;;;0.09;65.87
59545;BME280;45368;55.002;-1.592;2022-12-07T07:16:10;101548.41;;;0.35;63.72
59545;BME280;45368;55.002;-1.592;2022-12-07T07:18:37;101552.83;;;0.42;63.65
59545;BME280;45368;55.002;-1.592;2022-12-07T07:21:05;101552.78;;;-0.07;64.42
59545;BME280;45368;55.002;-1.592;2022-12-07T07:23:32;101556.81;;;-0.46;66.51
59545;BME280;45368;55.002;-1.592;2022-12-07T07:25:59;101552.83;;;0.27;65.09
59545;BME280;45368;55.002;-1.592;2022-12-07T07:28:26;101559.26;;;-0.66;66.83
59545;BME280;45368;55.002;-1.592;2022-12-07T07:31:00;101552.15;;;0.04;65.46
59545;BME280;45368;55.002;-1.592;2022-12-07T07:33:28;101548.49;;;0.05;64.90
59545;BME280;45368;55.002;-1.592;2022-12-07T07:35:55;101545.60;;;0.81;62.35
59545;BME280;45368;55.002;-1.592;2022-12-07T07:38:22;101545.58;;;0.11;63.03
59545;BME280;45368;55.002;-1.592;2022-12-07T07:40:49;101546.10;;;-0.18;64.05
59545;BME280;45368;55.002;-1.592;2022-12-07T07:43:16;101542.72;;;0.44;62.66
59545;BME280;45368;55.002;-1.592;2022-12-07T07:45:44;101540.73;;;0.71;62.30
59545;BME280;45368;55.002;-1.592;2022-12-07T07:48:11;101546.92;;;0.13;63.63
59545;BME280;45368;55.002;-1.592;2022-12-07T07:50:51;101552.38;;;0.30;64.01
59545;BME280;45368;55.002;-1.592;2022-12-07T07:53:19;101548.97;;;0.37;63.05
59545;BME280;45368;55.002;-1.592;2022-12-07T07:55:51;101543.23;;;0.37;63.67
59545;BME280;45368;55.002;-1.592;2022-12-07T07:58:18;101546.99;;;0.34;63.88
59545;BME280;45368;55.002;-1.592;2022-12-07T08:00:46;101549.84;;;0.29;64.04
59545;BME280;45368;55.002;-1.592;2022-12-07T08:03:14;101550.44;;;0.05;64.40
59545;BME280;45368;55.002;-1.592;2022-12-07T08:05:41;101550.51;;;0.79;62.20
59545;BME280;45368;55.002;-1.592;2022-12-07T08:08:08;101552.16;;;0.45;63.25
59545;BME280;45368;55.002;-1.592;2022-12-07T08:10:35;101553.60;;;0.25;64.61
59545;BME280;45368;55.002;-1.592;2022-12-07T08:13:02;101548.46;;;-0.10;64.90
59545;BME280;45368;55.002;-1.592;2022-12-07T08:15:30;101546.78;;;-0.43;65.22
59545;BME280;45368;55.002;-1.592;2022-12-07T08:17:58;101548.16;;;-0.17;64.76
59545;BME280;45368;55.002;-1.592;2022-12-07T08:20:25;101548.99;;;0.07;64.22
59545;BME280;45368;55.002;-1.592;2022-12-07T08:22:52;101546.76;;;0.71;61.81
59545;BME280;45368;55.002;-1.592;2022-12-07T08:25:19;101547.25;;;1.39;61.44
59545;BME280;45368;55.002;-1.592;2022-12-07T08:27:46;101549.69;;;0.53;62.34
59545;BME280;45368;55.002;-1.592;2022-12-07T08:30:14;101551.84;;;0.38;63.25
59545;BME280;45368;55.002;-1.592;2022-12-07T08:32:41;101556.94;;;0.57;61.98
59545;BME280;45368;55.002;-1.592;2022-12-07T08:35:08;101557.64;;;0.93;60.25
59545;BME280;45368;55.002;-1.592;2022-12-07T08:37:37;101559.08;;;0.96;61.04
59545;BME280;45368;55.002;-1.592;2022-12-07T08:40:06;101556.73;;;1.85;59.88
59545;BME280;45368;55.002;-1.592;2022-12-07T08:42:34;101557.36;;;1.72;58.42
59545;BME280;45368;55.002;-1.592;2022-12-07T08:45:01;101555.35;;;2.05;57.74
59545;BME280;45368;55.002;-1.592;2022-12-07T08:47:28;101554.46;;;1.95;57.82
59545;BME280;45368;55.002;-1.592;2022-12-07T08:49:56;101549.44;;;2.45;56.54
59545;BME280;45368;55.002;-1.592;2022-12-07T08:52:24;101553.21;;;1.89;58.15
59545;BME280;45368;55.002;-1.592;2022-12-07T08:54:51;101550.24;;;1.34;59.21
59545;BME280;45368;55.002;-1.592;2022-12-07T08:57:18;101545.66;;;1.78;57.89
59545;BME280;45368;55.002;-1.592;2022-12-07T08:59:45;101545.47;;;0.99;58.74
59545;BME280;45368;55.002;-1.592;2022-12-07T09:02:12;101545.00;;;1.39;58.53
59545;BME280;45368;55.002;-1.592;2022-12-07T09:04:40;101538.17;;;1.28;59.84
59545;BME280;45368;55.002;-1.592;2022-12-07T09:07:07;101538.27;;;1.11;59.83
59545;BME280;45368;55.002;-1.592;2022-12-07T09:09:34;101539.59;;;0.85;60.33
59545;BME280;45368;55.002;-1.592;2022-12-07T09:12:01;101536.06;;;0.97;59.62
59545;BME280;45368;55.002;-1.592;2022-12-07T09:14:28;101536.74;;;1.13;60.39
59545;BME280;45368;55.002;-1.592;2022-12-07T09:16:55;101530.18;;;1.23;60.58
59545;BME280;45368;55.002;-1.592;2022-12-07T09:19:22;101527.23;;;1.79;59.35
59545;BME280;45368;55.002;-1.592;2022-12-07T09:21:49;101525.77;;;1.89;58.74
59545;BME280;45368;55.002;-1.592;2022-12-07T09:24:16;101524.50;;;1.07;60.37
59545;BME280;45368;55.002;-1.592;2022-12-07T09:26:42;101519.16;;;0.87;60.39
59545;BME280;45368;55.002;-1.592;2022-12-07T09:29:10;101514.24;;;1.57;59.85
59545;BME280;45368;55.002;-1.592;2022-12-07T09:31:37;101510.75;;;1.95;58.11
59545;BME280;45368;55.002;-1.592;2022-12-07T09:34:04;101513.81;;;2.14;58.20
59545;BME280;45368;55.002;-1.592;2022-12-07T09:36:32;101513.96;;;2.06;58.78
59545;BME280;45368;55.002;-1.592;2022-12-07T09:38:59;101510.65;;;2.44;56.88
59545;BME280;45368;55.002;-1.592;2022-12-07T09:41:27;101503.77;;;2.57;57.23
59545;BME280;45368;55.002;-1.592;2022-12-07T09:44:03;101507.14;;;2.14;57.85
59545;BME280;45368;55.002;-1.592;2022-12-07T09:46:35;101506.66;;;1.82;58.90
59545;BME280;45368;55.002;-1.592;2022-12-07T09:49:04;101499.59;;;1.87;58.78
59545;BME280;45368;55.002;-1.592;2022-12-07T09:51:31;101505.88;;;1.12;60.16
59545;BME280;45368;55.002;-1.592;2022-12-07T09:53:59;101507.10;;;1.84;58.49
59545;BME280;45368;55.002;-1.592;2022-12-07T09:56:29;101500.15;;;1.67;59.65
59545;BME280;45368;55.002;-1.592;2022-12-07T09:58:59;101504.99;;;1.34;59.65
59545;BME280;45368;55.002;-1.592;2022-12-07T10:01:29;101496.32;;;2.42;58.51
59545;BME280;45368;55.002;-1.592;2022-12-07T10:04:06;101499.85;;;1.73;59.78
59545;BME280;45368;55.002;-1.592;2022-12-07T10:06:37;101499.81;;;1.93;58.49
59545;BME280;45368;55.002;-1.592;2022-12-07T10:09:10;101499.42;;;2.01;59.38
59545;BME280;45368;55.002;-1.592;2022-12-07T10:11:59;101498.31;;;1.91;58.83
59545;BME280;45368;55.002;-1.592;2022-12-07T10:14:29;101499.33;;;1.91;58.92
59545;BME280;45368;55.002;-1.592;2022-12-07T10:16:57;101495.47;;;2.89;56.54
59545;BME280;45368;55.002;-1.592;2022-12-07T10:19:26;101491.03;;;2.73;56.92
59545;BME280;45368;55.002;-1.592;2022-12-07T10:22:11;101487.09;;;2.43;57.78
59545;BME280;45368;55.002;-1.592;2022-12-07T10:24:40;101473.72;;;3.37;56.35
59545;BME280;45368;55.002;-1.592;2022-12-07T10:27:18;101474.21;;;3.24;55.96
59545;BME280;45368;55.002;-1.592;2022-12-07T10:29:48;101467.34;;;3.00;56.38
59545;BME280;45368;55.002;-1.592;2022-12-07T10:32:34;101466.73;;;2.33;57.60
59545;BME280;45368;55.002;-1.592;2022-12-07T10:35:22;101475.42;;;1.63;59.86
59545;BME280;45368;55.002;-1.592;2022-12-07T10:37:50;101467.03;;;1.75;60.08
59545;BME280;45368;55.002;-1.592;2022-12-07T10:40:30;101460.23;;;1.79;59.59
59545;BME280;45368;55.002;-1.592;2022-12-07T10:43:04;101451.03;;;2.09;59.52
59545;BME280;45368;55.002;-1.592;2022-12-07T10:45:32;101456.06;;;1.76;60.25
59545;BME280;45368;55.002;-1.592;2022-12-07T10:48:07;101451.58;;;1.69;60.92
59545;BME280;45368;55.002;-1.592;2022-12-07T10:50:47;101449.29;;;1.43;61.54
59545;BME280;45368;55.002;-1.592;2022-12-07T10:53:31;101445.05;;;2.19;58.73
59545;BME280;45368;55.002;-1.592;2022-12-07T10:56:48;101440.58;;;2.52;58.19
59545;BME280;45368;55.002;-1.592;2022-12-07T10:59:34;101435.47;;;2.85;57.33
59545;BME280;45368;55.002;-1.592;2022-12-07T11:02:21;101426.56;;;3.23;55.51
59545;BME280;45368;55.002;-1.592;2022-12-07T11:05:00;101432.41;;;1.99;58.96
59545;BME280;45368;55.002;-1.592;2022-12-07T11:07:40;101429.68;;;2.34;57.96
59545;BME280;45368;55.002;-1.592;2022-12-07T11:10:13;101427.62;;;1.93;59.28
59545;BME280;45368;55.002;-1.592;2022-12-07T11:12:57;101420.94;;;1.75;60.07
59545;BME280;45368;55.002;-1.592;2022-12-07T11:15:31;101425.22;;;0.97;61.46
59545;BME280;45368;55.002;-1.592;2022-12-07T11:18:07;101414.49;;;2.27;58.87
59545;BME280;45368;55.002;-1.592;2022-12-07T11:20:44;101406.51;;;3.33;57.11
59545;BME280;45368;55.002;-1.592;2022-12-07T11:23:30;101407.34;;;3.72;55.14
59545;BME280;45368;55.002;-1.592;2022-12-07T11:26:07;101398.18;;;4.68;52.80
59545;BME280;45368;55.002;-1.592;2022-12-07T11:28:57;101392.84;;;4.46;53.23
59545;BME280;45368;55.002;-1.592;2022-12-07T11:31:34;101385.02;;;4.83;52.32
59545;BME280;45368;55.002;-1.592;2022-12-07T11:34:08;101371.73;;;6.51;49.44
59545;BME280;45368;55.002;-1.592;2022-12-07T11:36:57;101372.24;;;6.48;48.30
59545;BME280;45368;55.002;-1.592;2022-12-07T11:40:36;101380.83;;;5.95;48.59
59545;BME280;45368;55.002;-1.592;2022-12-07T11:43:17;101384.45;;;4.23;51.72
59545;BME280;45368;55.002;-1.592;2022-12-07T11:48:06;101378.44;;;4.45;52.39
59545;BME280;45368;55.002;-1.592;2022-12-07T11:53:52;101378.47;;;3.09;55.99
59545;BME280;45368;55.002;-1.592;2022-12-07T11:56:21;101379.11;;;2.51;56.27
59545;BME280;45368;55.002;-1.592;2022-12-07T11:59:45;101376.64;;;2.67;56.77
59545;BME280;45368;55.002;-1.592;2022-12-07T12:06:42;101377.02;;;2.14;59.53
59545;BME280;45368;55.002;-1.592;2022-12-07T12:09:13;101370.85;;;2.02;58.82
59545;BME280;45368;55.002;-1.592;2022-12-07T12:14:57;101366.02;;;1.46;60.98
59545;BME280;45368;55.002;-1.592;2022-12-07T12:17:45;101349.22;;;0.98;60.94
59545;BME280;45368;55.002;-1.592;2022-12-07T12:20:21;101341.01;;;1.43;59.33
59545;BME280;45368;55.002;-1.592;2022-12-07T12:22:54;101339.03;;;1.20;59.31
59545;BME280;45368;55.002;-1.592;2022-12-07T12:25:27;101337.16;;;1.46;58.13
59545;BME280;45368;55.002;-1.592;2022-12-07T12:27:56;101337.03;;;1.00;60.28
59545;BME280;45368;55.002;-1.592;2022-12-07T12:30:30;101338.64;;;1.65;58.70
59545;BME280;45368;55.002;-1.592;2022-12-07T12:33:04;101326.41;;;1.13;60.20
59545;BME280;45368;55.002;-1.592;2022-12-07T12:35:34;101325.10;;;1.43;59.31
59545;BME280;45368;55.002;-1.592;2022-12-07T12:38:26;101329.36;;;1.20;59.96
59545;BME280;45368;55.002;-1.592;2022-12-07T12:42:06;101325.90;;;1.55;57.68
59545;BME280;45368;55.002;-1.592;2022-12-07T22:00:09;100835.95;;;-3.85;78.17
59545;BME280;45368;55.002;-1.592;2022-12-07T22:02:37;100818.61;;;-1.40;70.15
59545;BME280;45368;55.002;-1.592;2022-12-07T22:05:04;100813.34;;;-0.70;65.52
59545;BME280;45368;55.002;-1.592;2022-12-07T22:07:32;100813.84;;;-0.06;62.95
59545;BME280;45368;55.002;-1.592;2022-12-07T22:09:59;100810.93;;;1.17;60.14
59545;BME280;45368;55.002;-1.592;2022-12-07T22:12:26;100807.18;;;1.10;59.77
59545;BME280;45368;55.002;-1.592;2022-12-07T22:14:54;100803.55;;;1.31;59.01
59545;BME280;45368;55.002;-1.592;2022-12-07T22:17:21;100798.56;;;1.61;57.94
59545;BME280;45368;55.002;-1.592;2022-12-07T22:19:48;100794.98;;;1.44;57.16
59545;BME280;45368;55.002;-1.592;2022-12-07T22:22:15;100791.50;;;1.56;57.21
59545;BME280;45368;55.002;-1.592;2022-12-07T22:24:43;100789.38;;;1.38;57.30
59545;BME280;45368;55.002;-1.592;2022-12-07T22:27:11;100785.32;;;1.52;56.52
59545;BME280;45368;55.002;-1.592;2022-12-07T22:29:37;100784.02;;;1.49;57.09
59545;BME280;45368;55.002;-1.592;2022-12-07T22:32:05;100777.26;;;2.08;55.77
59545;BME280;45368;55.002;-1.592;2022-12-07T22:34:32;100780.92;;;1.54;56.07
59545;BME280;45368;55.002;-1.592;2022-12-07T22:36:58;100782.90;;;1.38;56.38
59545;BME280;45368;55.002;-1.592;2022-12-07T22:39:26;100777.65;;;2.38;55.62
59545;BME280;45368;55.002;-1.592;2022-12-07T22:41:58;100773.29;;;2.71;54.47
59545;BME280;45368;55.002;-1.592;2022-12-07T22:44:25;100773.63;;;2.41;54.34
59545;BME280;45368;55.002;-1.592;2022-12-07T22:54:33;100778.07;;;2.56;55.65
59545;BME280;45368;55.002;-1.592;2022-12-07T22:57:00;100772.72;;;1.56;53.89
59545;BME280;45368;55.002;-1.592;2022-12-07T22:59:27;100773.65;;;2.28;54.69
59545;BME280;45368;55.002;-1.592;2022-12-07T23:01:54;100779.68;;;1.26;56.35
59545;BME280;45368;55.002;-1.592;2022-12-07T23:04:21;100777.48;;;1.71;56.03
59545;BME280;45368;55.002;-1.592;2022-12-07T23:06:48;100773.87;;;2.13;54.48
59545;BME280;45368;55.002;-1.592;2022-12-07T23:09:15;100775.26;;;2.21;55.16
59545;BME280;45368;55.002;-1.592;2022-12-07T23:11:42;100774.90;;;1.45;56.59